Time;durP1;ratioP1;P1;durP2;ratioP2;P2;SDS_P1;SDS_P2;PMS_P1;PMS_P2;Temp;Humidity;BMP_temperature;BMP_pressure;BME280_temperature;BME280_humidity;BME280_pressure;Samples;Min_cycle;Max_cycle;Signal;HPM_P1;HPM_P2
2023/12/23 00:00:10;;;;;;;3.13;0.93;;;;;;;8.45;100.00;100929.75;5324614;27;20542;-81
2023/12/23 00:02:42;;;;;;;5.33;1.00;;;;;;;8.48;100.00;100935.56;5305878;28;20059;-81
2023/12/23 00:05:14;;;;;;;4.85;1.45;;;;;;;8.51;100.00;100937.13;5326122;27;20114;-81
2023/12/23 00:07:46;;;;;;;4.85;1.25;;;;;;;8.54;100.00;100947.34;5325779;27;20054;-81
2023/12/23 00:10:18;;;;;;;5.00;1.20;;;;;;;8.55;100.00;100945.56;5326639;27;20038;-81
2023/12/23 00:12:50;;;;;;;5.65;1.55;;;;;;;8.55;100.00;100941.16;5328401;27;20024;-82
2023/12/23 00:15:22;;;;;;;5.28;1.10;;;;;;;8.60;100.00;100949.50;5324986;27;20028;-81
2023/12/23 00:17:53;;;;;;;6.50;1.77;;;;;;;8.60;100.00;100935.59;5325288;27;20039;-81
2023/12/23 00:20:25;;;;;;;5.38;0.93;;;;;;;8.60;100.00;100933.84;5325710;27;20042;-81
2023/12/23 00:22:58;;;;;;;5.63;1.88;;;;;;;8.58;100.00;100925.28;5326733;28;20481;-81
2023/12/23 00:25:29;;;;;;;5.87;1.20;;;;;;;8.52;100.00;100912.66;5318678;27;20038;-81
2023/12/23 00:28:03;;;;;;;6.68;1.42;;;;;;;8.51;100.00;100908.41;5325353;27;20122;-82
2023/12/23 00:30:34;;;;;;;5.32;1.67;;;;;;;8.67;100.00;100921.97;5324749;27;20038;-82
2023/12/23 00:33:06;;;;;;;6.93;1.50;;;;;;;8.69;100.00;100921.84;5325736;28;20114;-82
2023/12/23 00:35:38;;;;;;;7.50;1.95;;;;;;;8.67;100.00;100918.50;5322126;27;20092;-82
2023/12/23 00:38:10;;;;;;;8.35;1.70;;;;;;;8.64;100.00;100914.38;5324359;27;20118;-82
2023/12/23 00:40:42;;;;;;;5.45;1.83;;;;;;;8.71;100.00;100917.34;5324696;27;20128;-82
2023/12/23 00:43:14;;;;;;;11.25;1.98;;;;;;;8.83;100.00;100908.59;5329315;27;20110;-80
2023/12/23 00:45:46;;;;;;;9.77;2.30;;;;;;;8.96;100.00;100903.25;5327554;28;20032;-81
2023/12/23 00:48:18;;;;;;;11.10;2.85;;;;;;;9.10;100.00;100900.41;5326840;28;20039;-81
2023/12/23 00:50:50;;;;;;;12.00;3.03;;;;;;;9.27;100.00;100896.47;5325187;28;20036;-81
2023/12/23 00:53:25;;;;;;;7.45;2.00;;;;;;;9.37;100.00;100889.56;5319359;27;20028;-81
2023/12/23 00:55:57;;;;;;;7.35;2.03;;;;;;;9.41;100.00;100893.59;5346099;27;20051;-81
2023/12/23 00:58:29;;;;;;;9.75;2.40;;;;;;;9.51;100.00;100893.72;5345816;27;20569;-81
2023/12/23 01:01:01;;;;;;;9.45;2.35;;;;;;;9.61;100.00;100886.78;5345633;27;20042;-81
2023/12/23 01:03:33;;;;;;;10.25;2.65;;;;;;;9.68;100.00;100879.28;5351119;27;20487;-81
2023/12/23 01:06:05;;;;;;;10.60;2.58;;;;;;;9.74;100.00;100895.31;5346707;27;20031;-81
2023/12/23 01:08:37;;;;;;;8.48;2.30;;;;;;;9.74;100.00;100892.69;5343153;27;20023;-81
2023/12/23 01:11:10;;;;;;;11.02;2.53;;;;;;;9.82;100.00;100892.06;5347989;27;20376;-81
2023/12/23 01:13:41;;;;;;;13.32;2.95;;;;;;;9.77;100.00;100877.69;5347576;27;20801;-81
2023/12/23 01:16:13;;;;;;;8.63;2.50;;;;;;;9.84;100.00;100887.53;5348112;27;20110;-81
2023/12/23 01:18:45;;;;;;;15.23;2.95;;;;;;;9.85;100.00;100876.13;5347685;27;20022;-81
2023/12/23 01:21:20;;;;;;;9.43;2.25;;;;;;;9.95;100.00;100870.97;5346896;27;20033;-81
2023/12/23 01:23:51;;;;;;;7.15;1.77;;;;;;;9.93;100.00;100863.25;5349738;27;20019;-81
2023/12/23 01:26:23;;;;;;;9.70;2.58;;;;;;;9.96;100.00;100864.75;5344128;27;20559;-81
2023/12/23 01:29:00;;;;;;;9.30;2.33;;;;;;;9.98;100.00;100873.34;5351095;27;20523;-81
2023/12/23 01:31:31;;;;;;;13.35;2.95;;;;;;;10.02;100.00;100866.06;5349655;27;20035;-82
2023/12/23 01:34:03;;;;;;;6.70;2.22;;;;;;;9.96;100.00;100863.00;5348324;27;20017;-81
2023/12/23 01:36:35;;;;;;;9.35;2.30;;;;;;;10.02;100.00;100868.69;5351371;27;20477;-81
2023/12/23 01:39:07;;;;;;;8.70;2.03;;;;;;;10.03;100.00;100854.63;5352302;27;20110;-81
2023/12/23 01:41:39;;;;;;;8.88;2.03;;;;;;;10.08;100.00;100871.63;5350722;27;20026;-82
2023/12/23 01:44:11;;;;;;;8.88;2.10;;;;;;;10.05;100.00;100855.34;5349661;27;20019;-81
2023/12/23 01:46:43;;;;;;;9.07;2.08;;;;;;;10.07;100.00;100863.88;5354162;27;20026;-81
2023/12/23 01:49:15;;;;;;;8.70;2.03;;;;;;;10.08;100.00;100855.09;5351043;27;20035;-82
2023/12/23 01:51:48;;;;;;;11.30;2.40;;;;;;;10.11;100.00;100858.25;5350177;27;20027;-81
2023/12/23 01:54:21;;;;;;;9.65;2.80;;;;;;;10.08;100.00;100855.94;5338467;27;20044;-82
2023/12/23 01:56:54;;;;;;;9.25;2.85;;;;;;;10.13;100.00;100863.41;5309380;27;20249;-81
2023/12/23 01:59:26;;;;;;;8.77;2.30;;;;;;;10.15;100.00;100864.09;5308653;27;20032;-81
2023/12/23 02:01:59;;;;;;;10.27;2.53;;;;;;;10.09;100.00;100851.53;5307527;27;20066;-82
2023/12/23 02:04:31;;;;;;;8.82;2.45;;;;;;;10.14;100.00;100855.41;5311615;27;20028;-81
2023/12/23 02:07:03;;;;;;;9.50;2.60;;;;;;;10.10;100.00;100854.00;5309015;27;20031;-81
2023/12/23 02:09:35;;;;;;;8.32;1.75;;;;;;;10.08;100.00;100837.59;5302920;27;20051;-81
2023/12/23 02:12:26;;;;;;;8.80;2.35;;;;;;;10.22;100.00;100846.91;5301934;27;20031;-81
2023/12/23 02:15:03;;;;;;;10.00;2.28;;;;;;;10.09;100.00;100841.03;5296807;28;20485;-81
2023/12/23 02:17:37;;;;;;;6.82;1.77;;;;;;;10.06;100.00;100830.81;5301657;28;20047;-81
2023/12/23 02:20:09;;;;;;;12.65;2.65;;;;;;;10.02;100.00;100832.88;5303237;27;20039;-81
2023/12/23 02:22:41;;;;;;;9.10;2.30;;;;;;;9.95;100.00;100824.69;5301513;27;20032;-81
2023/12/23 02:25:13;;;;;;;7.78;1.98;;;;;;;10.03;100.00;100838.94;5302532;27;20032;-81
2023/12/23 02:27:50;;;;;;;10.90;1.90;;;;;;;10.06;100.00;100841.28;5302223;27;20064;-81
2023/12/23 02:30:24;;;;;;;12.80;3.53;;;;;;;10.07;100.00;100840.31;5303646;28;20036;-81
2023/12/23 02:32:56;;;;;;;6.45;1.80;;;;;;;10.02;100.00;100832.88;5302094;28;20064;-81
2023/12/23 02:35:28;;;;;;;10.90;2.03;;;;;;;9.99;100.00;100836.56;5303577;27;20359;-81
2023/12/23 02:38:00;;;;;;;9.38;2.00;;;;;;;10.01;100.00;100830.38;5302061;27;20034;-81
2023/12/23 02:40:32;;;;;;;7.25;2.38;;;;;;;10.03;100.00;100837.13;5298734;27;20040;-81
2023/12/23 02:43:04;;;;;;;11.60;1.90;;;;;;;10.03;100.00;100826.66;5298262;28;20131;-81
2023/12/23 02:45:36;;;;;;;10.98;2.42;;;;;;;10.02;100.00;100819.78;5301924;27;20028;-81
2023/12/23 02:48:08;;;;;;;11.00;2.60;;;;;;;10.12;100.00;100825.09;5300141;28;20042;-81
2023/12/23 02:50:39;;;;;;;8.98;2.67;;;;;;;10.02;100.00;100814.53;5301688;28;20031;-81
2023/12/23 02:53:11;;;;;;;13.88;3.05;;;;;;;10.09;100.00;100801.78;5291852;28;20040;-81
2023/12/23 02:55:43;;;;;;;9.68;1.98;;;;;;;10.12;100.00;100801.53;5340278;27;20042;-81
2023/12/23 02:58:15;;;;;;;11.68;3.03;;;;;;;10.17;100.00;100800.19;5342088;27;20484;-81
2023/12/23 03:00:47;;;;;;;7.63;2.17;;;;;;;10.19;100.00;100800.91;5341813;27;20392;-81
2023/12/23 03:03:19;;;;;;;8.90;2.30;;;;;;;10.19;100.00;100789.56;5347093;27;20018;-81
2023/12/23 03:05:53;;;;;;;12.93;2.47;;;;;;;10.23;100.00;100796.22;5343481;27;20038;-81
2023/12/23 03:08:25;;;;;;;13.25;2.58;;;;;;;10.23;100.00;100783.13;5347571;27;20030;-81
2023/12/23 03:10:57;;;;;;;11.55;1.88;;;;;;;10.22;100.00;100786.69;5347511;27;20031;-81
2023/12/23 03:13:28;;;;;;;8.50;2.17;;;;;;;10.24;100.00;100784.78;5349809;27;20035;-81
2023/12/23 03:16:00;;;;;;;7.07;2.10;;;;;;;10.21;100.00;100783.25;5346970;27;20033;-81
2023/12/23 03:18:34;;;;;;;7.10;2.38;;;;;;;10.28;100.00;100786.22;5343816;27;20037;-81
2023/12/23 03:21:06;;;;;;;7.70;2.05;;;;;;;10.31;100.00;100795.63;5347371;27;20043;-81
2023/12/23 03:23:38;;;;;;;7.53;2.15;;;;;;;10.27;100.00;100789.81;5346621;27;20041;-81
2023/12/23 03:26:09;;;;;;;8.50;2.38;;;;;;;10.34;100.00;100784.84;5346035;27;20030;-81
2023/12/23 03:28:41;;;;;;;10.55;2.38;;;;;;;10.36;100.00;100796.88;5341308;27;20483;-81
2023/12/23 03:31:13;;;;;;;10.88;2.38;;;;;;;10.37;100.00;100803.75;5345914;27;20381;-81
2023/12/23 03:33:45;;;;;;;8.02;1.83;;;;;;;10.37;100.00;100801.13;5351939;27;20030;-81
2023/12/23 03:36:20;;;;;;;10.95;2.70;;;;;;;10.34;100.00;100797.94;5346165;27;20038;-81
2023/12/23 03:38:51;;;;;;;11.32;2.90;;;;;;;10.29;100.00;100773.94;5346694;27;20045;-81
2023/12/23 03:41:24;;;;;;;7.72;2.47;;;;;;;10.28;100.00;100788.00;5345312;27;21027;-82
2023/12/23 03:43:55;;;;;;;10.45;2.40;;;;;;;10.26;100.00;100788.13;5346899;27;20380;-81
2023/12/23 03:46:27;;;;;;;10.38;2.05;;;;;;;10.24;100.00;100785.63;5355458;27;20121;-82
2023/12/23 03:48:59;;;;;;;9.10;2.28;;;;;;;10.22;100.00;100791.94;5353866;27;20086;-82
2023/12/23 03:51:31;;;;;;;12.43;3.28;;;;;;;10.20;100.00;100770.31;5355206;27;20133;-82
2023/12/23 03:54:03;;;;;;;11.38;2.40;;;;;;;10.17;100.00;100763.53;5357705;27;20129;-82
2023/12/23 03:56:35;;;;;;;9.30;2.20;;;;;;;10.25;100.00;100773.38;5353367;27;20031;-82
2023/12/23 03:59:07;;;;;;;7.65;2.22;;;;;;;10.23;100.00;100775.28;5334540;27;20039;-82
2023/12/23 04:01:39;;;;;;;9.07;2.42;;;;;;;10.23;100.00;100783.13;5352847;27;20153;-82
2023/12/23 04:04:10;;;;;;;10.88;2.67;;;;;;;10.21;100.00;100775.41;5354128;27;20027;-82
2023/12/23 04:06:42;;;;;;;9.05;2.03;;;;;;;10.19;100.00;100777.31;5337669;27;20064;-82
2023/12/23 04:09:16;;;;;;;11.18;2.60;;;;;;;10.26;100.00;100777.66;5351195;27;20440;-82
2023/12/23 04:11:48;;;;;;;11.55;2.65;;;;;;;10.26;100.00;100772.41;5352572;27;20019;-82
2023/12/23 04:14:20;;;;;;;6.18;2.00;;;;;;;10.30;100.00;100776.44;5356333;27;20110;-82
2023/12/23 04:16:52;;;;;;;11.20;3.00;;;;;;;10.29;100.00;100779.19;5352378;27;20552;-82
2023/12/23 04:19:24;;;;;;;9.32;2.08;;;;;;;10.33;100.00;100770.94;5353597;27;20460;-82
2023/12/23 04:21:56;;;;;;;8.05;2.53;;;;;;;10.21;100.00;100764.09;5355589;27;20118;-82
2023/12/23 04:24:28;;;;;;;8.55;2.20;;;;;;;10.31;100.00;100764.19;5353044;27;20101;-82
2023/12/23 04:26:59;;;;;;;7.93;2.35;;;;;;;10.26;100.00;100758.50;5352385;27;20023;-82
2023/12/23 04:29:32;;;;;;;6.80;1.92;;;;;;;10.26;100.00;100751.47;5354927;27;20110;-82
2023/12/23 04:32:04;;;;;;;7.20;2.15;;;;;;;10.33;100.00;100744.75;5353945;27;20026;-82
2023/12/23 04:34:39;;;;;;;7.72;2.55;;;;;;;10.35;100.00;100750.69;5353710;27;20035;-82
2023/12/23 04:37:11;;;;;;;11.60;2.20;;;;;;;10.27;100.00;100734.81;5353272;27;20030;-82
2023/12/23 04:39:43;;;;;;;8.32;2.25;;;;;;;10.26;100.00;100738.38;5354453;27;20448;-82
2023/12/23 04:42:15;;;;;;;9.52;2.13;;;;;;;10.32;100.00;100729.19;5353751;27;20478;-82
2023/12/23 04:44:47;;;;;;;11.88;2.47;;;;;;;10.28;100.00;100731.22;5353244;27;20122;-82
2023/12/23 04:47:19;;;;;;;9.30;2.15;;;;;;;10.25;100.00;100726.25;5353347;27;21277;-82
2023/12/23 04:49:51;;;;;;;7.95;2.15;;;;;;;10.28;100.00;100718.13;5349993;27;20462;-81
2023/12/23 04:52:23;;;;;;;9.15;1.88;;;;;;;10.23;100.00;100722.91;5353334;27;20023;-81
2023/12/23 04:54:55;;;;;;;7.63;2.50;;;;;;;10.22;100.00;100710.75;5350865;27;20149;-82
2023/12/23 04:57:28;;;;;;;11.07;2.75;;;;;;;10.27;100.00;100713.88;5353752;27;20034;-82
2023/12/23 04:59:59;;;;;;;8.98;2.38;;;;;;;10.26;100.00;100717.44;5354198;27;20035;-82
2023/12/23 05:02:34;;;;;;;10.95;2.28;;;;;;;10.32;100.00;100719.53;5354332;27;20034;-81
2023/12/23 05:05:06;;;;;;;8.68;1.90;;;;;;;10.28;100.00;100706.84;5356264;27;20067;-81
2023/12/23 05:07:38;;;;;;;9.10;2.25;;;;;;;10.23;100.00;100712.44;5358681;27;20603;-82
2023/12/23 05:10:10;;;;;;;14.43;2.47;;;;;;;10.28;100.00;100723.38;5358289;27;20032;-82
2023/12/23 05:12:42;;;;;;;8.35;2.20;;;;;;;10.23;100.00;100730.78;5359651;27;20095;-82
2023/12/23 05:15:14;;;;;;;7.55;2.10;;;;;;;10.20;100.00;100712.69;5358375;27;20099;-82
2023/12/23 05:17:46;;;;;;;8.63;1.85;;;;;;;10.26;100.00;100716.59;5360344;27;20037;-82
2023/12/23 05:20:18;;;;;;;7.22;1.95;;;;;;;10.22;100.00;100713.38;5357307;27;20158;-82
2023/12/23 05:22:49;;;;;;;6.47;1.95;;;;;;;10.24;100.00;100737.66;5359668;27;20026;-81
2023/12/23 05:25:21;;;;;;;9.50;1.95;;;;;;;10.26;100.00;100727.06;5359093;27;20031;-82
2023/12/23 05:27:53;;;;;;;9.68;2.47;;;;;;;10.28;100.00;100705.03;5357567;27;20048;-81
2023/12/23 05:30:25;;;;;;;8.43;2.08;;;;;;;10.25;100.00;100697.44;5358072;27;20512;-82
2023/12/23 05:32:57;;;;;;;9.50;2.08;;;;;;;10.28;100.00;100710.28;5357397;27;20059;-82
2023/12/23 05:35:29;;;;;;;9.95;2.03;;;;;;;10.30;100.00;100713.59;5360302;27;20172;-82
2023/12/23 05:38:01;;;;;;;9.73;2.58;;;;;;;10.30;100.00;100708.34;5354288;27;20110;-81
2023/12/23 05:40:33;;;;;;;11.40;2.80;;;;;;;10.35;100.00;100700.94;5338457;27;20038;-82
2023/12/23 05:43:05;;;;;;;6.47;2.20;;;;;;;10.34;100.00;100695.81;5359287;27;20118;-82
2023/12/23 05:45:37;;;;;;;7.07;2.63;;;;;;;10.41;100.00;100710.88;5358212;27;20037;-82
2023/12/23 05:48:09;;;;;;;8.63;2.33;;;;;;;10.39;100.00;100701.50;5355165;27;20023;-82
2023/12/23 05:50:40;;;;;;;10.60;2.42;;;;;;;10.38;100.00;100689.34;5357296;27;20500;-82
2023/12/23 05:53:12;;;;;;;8.57;2.33;;;;;;;10.51;100.00;100710.91;5356857;27;20113;-82
2023/12/23 05:55:44;;;;;;;12.32;2.95;;;;;;;10.44;100.00;100708.00;5355868;27;20039;-82
2023/12/23 05:58:16;;;;;;;9.40;1.98;;;;;;;10.49;100.00;100712.81;5357520;27;20048;-82
2023/12/23 06:00:49;;;;;;;7.55;2.25;;;;;;;10.46;100.00;100713.13;5355771;27;20037;-82
2023/12/23 06:03:21;;;;;;;;;;;;;;;10.91;100.00;100705.66;5355654;27;20108;-82
2023/12/23 06:05:53;;;;;;;8.57;2.60;;;;;;;10.58;100.00;100706.81;5357235;27;19915;-82
2023/12/23 06:08:25;;;;;;;9.43;2.78;;;;;;;10.52;100.00;100706.50;5354744;27;20106;-82
2023/12/23 06:10:57;;;;;;;7.93;2.17;;;;;;;10.61;100.00;100710.97;5356549;27;20113;-82
2023/12/23 06:13:29;;;;;;;8.35;1.83;;;;;;;10.48;100.00;100703.31;5353465;27;20023;-82
2023/12/23 06:16:05;;;;;;;11.60;3.22;;;;;;;10.53;100.00;100701.16;5358622;27;20086;-82
2023/12/23 06:18:37;;;;;;;10.77;2.88;;;;;;;10.50;100.00;100693.56;5354439;27;20026;-82
2023/12/23 06:21:10;;;;;;;9.50;2.45;;;;;;;10.53;100.00;100693.28;5356679;27;20031;-82
2023/12/23 06:23:41;;;;;;;9.43;2.17;;;;;;;10.57;100.00;100699.91;5356192;27;20034;-81
2023/12/23 06:26:14;;;;;;;10.82;2.60;;;;;;;10.61;100.00;100706.56;5356391;27;20111;-82
2023/12/23 06:28:46;;;;;;;13.50;2.60;;;;;;;10.62;100.00;100696.91;5358533;27;20595;-82
2023/12/23 06:31:18;;;;;;;7.90;2.53;;;;;;;10.58;100.00;100685.03;5355851;27;20042;-81
2023/12/23 06:33:50;;;;;;;11.40;2.42;;;;;;;10.56;100.00;100694.81;5357853;27;20114;-82
2023/12/23 06:36:22;;;;;;;8.93;3.45;;;;;;;10.62;100.00;100699.50;5354287;27;20023;-81
2023/12/23 06:38:53;;;;;;;9.05;2.30;;;;;;;10.62;100.00;100695.09;5353165;27;20568;-81
2023/12/23 06:41:25;;;;;;;9.77;2.53;;;;;;;10.63;100.00;100709.03;5355900;27;20495;-82
2023/12/23 06:43:57;;;;;;;10.07;2.78;;;;;;;10.58;100.00;100701.56;5354961;27;20033;-82
2023/12/23 06:46:29;;;;;;;11.30;2.80;;;;;;;10.51;100.00;100689.97;5337687;27;20460;-81
2023/12/23 06:49:01;;;;;;;11.77;2.53;;;;;;;10.62;100.00;100702.13;5336146;27;20054;-82
2023/12/23 06:51:33;;;;;;;7.57;2.33;;;;;;;10.63;100.00;100694.13;5356748;27;20134;-81
2023/12/23 06:54:05;;;;;;;8.45;2.25;;;;;;;10.63;100.00;100701.16;5353311;27;20043;-81
2023/12/23 06:56:37;;;;;;;10.90;2.80;;;;;;;10.61;100.00;100698.69;5356194;27;20110;-81
2023/12/23 06:59:12;;;;;;;11.05;2.50;;;;;;;10.59;100.00;100694.53;5354880;27;20133;-82
2023/12/23 07:01:44;;;;;;;10.00;2.60;;;;;;;10.61;100.00;100695.25;5352978;27;20027;-82
2023/12/23 07:04:16;;;;;;;9.23;2.38;;;;;;;10.55;100.00;100688.72;5355076;27;20117;-81
2023/12/23 07:06:48;;;;;;;14.13;2.55;;;;;;;10.61;100.00;100692.63;5352548;27;20109;-81
2023/12/23 07:09:20;;;;;;;9.95;2.83;;;;;;;10.66;100.00;100687.81;5353369;27;20122;-81
2023/12/23 07:11:51;;;;;;;7.95;2.03;;;;;;;10.64;100.00;100689.72;5353413;27;20532;-81
2023/12/23 07:14:24;;;;;;;10.63;2.50;;;;;;;10.67;100.00;100689.44;5353712;27;20678;-81
2023/12/23 07:16:55;;;;;;;9.13;2.47;;;;;;;10.69;100.00;100684.91;5350452;27;20031;-81
2023/12/23 07:19:27;;;;;;;8.60;2.30;;;;;;;10.72;100.00;100684.66;5354423;27;20488;-80
2023/12/23 07:21:59;;;;;;;9.90;2.67;;;;;;;10.68;100.00;100680.63;5352017;27;20031;-81
2023/12/23 07:24:31;;;;;;;9.38;2.15;;;;;;;10.73;100.00;100696.78;5349811;27;20023;-81
2023/12/23 07:27:04;;;;;;;9.65;2.70;;;;;;;10.82;100.00;100692.53;5345602;27;20037;-81
2023/12/23 07:29:38;;;;;;;9.57;2.42;;;;;;;10.91;100.00;100713.50;5351469;27;20050;-81
2023/12/23 07:32:10;;;;;;;8.20;2.05;;;;;;;10.84;100.00;100707.16;5347223;27;20035;-81
2023/12/23 07:34:42;;;;;;;7.30;1.67;;;;;;;10.89;100.00;100710.19;5347092;27;20023;-81
2023/12/23 07:37:14;;;;;;;11.70;2.80;;;;;;;10.82;100.00;100723.97;5349865;27;20452;-81
2023/12/23 07:39:46;;;;;;;10.52;2.60;;;;;;;10.78;100.00;100702.44;5347149;27;20027;-81
2023/12/23 07:42:18;;;;;;;10.27;2.28;;;;;;;10.86;100.00;100707.00;5350058;27;20039;-82
2023/12/23 07:44:50;;;;;;;10.15;2.40;;;;;;;10.89;100.00;100722.47;5347581;27;20045;-81
2023/12/23 07:47:22;;;;;;;10.13;2.58;;;;;;;10.91;100.00;100731.00;5350026;27;20023;-81
2023/12/23 07:49:54;;;;;;;9.43;2.67;;;;;;;10.90;100.00;100706.59;5349699;27;20555;-81
2023/12/23 07:52:26;;;;;;;10.15;1.98;;;;;;;10.98;100.00;100705.09;5346411;27;20529;-81
2023/12/23 07:54:58;;;;;;;6.80;2.40;;;;;;;10.95;100.00;100712.28;5349878;27;20050;-81
2023/12/23 07:57:30;;;;;;;10.32;2.15;;;;;;;10.99;100.00;100699.72;5351863;27;20042;-81
2023/12/23 08:00:02;;;;;;;7.63;2.45;;;;;;;10.98;100.00;100708.53;5348552;27;20629;-81
2023/12/23 08:02:34;;;;;;;7.43;2.10;;;;;;;11.01;100.00;100705.66;5347805;27;20030;-81
2023/12/23 08:05:06;;;;;;;6.63;1.63;;;;;;;11.02;100.00;100714.34;5351206;27;20068;-81
2023/12/23 08:07:40;;;;;;;8.70;1.98;;;;;;;11.04;100.00;100708.00;5346877;27;20083;-81
2023/12/23 08:10:11;;;;;;;5.65;1.60;;;;;;;11.02;100.00;100709.91;5348799;27;20030;-81
2023/12/23 08:12:44;;;;;;;7.95;1.63;;;;;;;11.05;100.00;100691.31;5348443;27;20035;-81
2023/12/23 08:15:15;;;;;;;6.85;1.98;;;;;;;11.06;100.00;100694.75;5347794;27;20038;-81
2023/12/23 08:17:49;;;;;;;7.65;1.88;;;;;;;11.13;100.00;100706.34;5349062;27;20138;-81
2023/12/23 08:20:21;;;;;;;5.95;1.55;;;;;;;11.15;100.00;100725.41;5326472;27;20042;-81
2023/12/23 08:22:53;;;;;;;9.35;2.58;;;;;;;11.10;100.00;100717.09;5347055;27;20357;-81
2023/12/23 08:25:25;;;;;;;10.25;2.38;;;;;;;11.22;100.00;100716.03;5349760;27;20467;-81
2023/12/23 08:27:57;;;;;;;7.45;1.85;;;;;;;11.19;100.00;100714.50;5343879;27;21166;-81
2023/12/23 08:30:29;;;;;;;6.93;1.73;;;;;;;11.23;100.00;100725.53;5348034;27;20042;-81
2023/12/23 08:33:01;;;;;;;7.25;2.03;;;;;;;11.16;100.00;100712.16;5350939;27;20023;-81
2023/12/23 08:35:33;;;;;;;7.55;1.67;;;;;;;11.23;100.00;100719.47;5346635;27;20480;-81
2023/12/23 08:38:05;;;;;;;8.20;1.92;;;;;;;11.17;100.00;100733.94;5352832;27;20027;-81
2023/12/23 08:40:36;;;;;;;9.02;2.15;;;;;;;11.24;100.00;100735.06;5353796;27;20027;-81
2023/12/23 08:43:09;;;;;;;7.72;2.58;;;;;;;11.22;100.00;100730.94;5347397;27;20242;-81
2023/12/23 08:45:41;;;;;;;9.98;2.08;;;;;;;11.22;100.00;100741.44;5353138;27;20023;-81
2023/12/23 08:48:13;;;;;;;7.07;2.13;;;;;;;11.18;100.00;100738.25;5351718;27;20050;-81
2023/12/23 08:50:46;;;;;;;9.13;2.10;;;;;;;11.21;100.00;100740.56;5353962;27;20039;-81
2023/12/23 08:53:18;;;;;;;12.52;2.08;;;;;;;11.22;100.00;100736.19;5351317;27;20023;-81
2023/12/23 08:55:50;;;;;;;7.45;1.73;;;;;;;11.12;100.00;100723.06;5348917;27;20043;-81
2023/12/23 08:58:22;;;;;;;7.75;1.83;;;;;;;11.14;100.00;100742.94;5350269;27;20042;-80
2023/12/23 09:00:54;;;;;;;9.43;2.22;;;;;;;11.18;100.00;100746.13;5349170;27;20468;-81
2023/12/23 09:03:27;;;;;;;6.70;1.77;;;;;;;11.16;100.00;100746.22;5353619;27;20129;-80
2023/12/23 09:05:59;;;;;;;;;;;;;;;11.63;100.00;100761.28;5347375;27;20271;-81
2023/12/23 09:08:33;;;;;;;5.78;1.70;;;;;;;11.06;100.00;100748.03;5346080;27;20372;-81
2023/12/23 09:11:05;;;;;;;10.57;1.90;;;;;;;10.93;100.00;100765.78;5328947;27;20316;-81
2023/12/23 09:13:37;;;;;;;11.30;2.65;;;;;;;10.98;100.00;100766.22;5348120;27;20506;-81
2023/12/23 09:16:09;;;;;;;8.47;2.17;;;;;;;10.89;100.00;100773.09;5352091;27;20033;-81
2023/12/23 09:18:41;;;;;;;5.25;1.83;;;;;;;10.88;100.00;100771.44;5332446;27;20288;-81
2023/12/23 09:21:13;;;;;;;7.10;1.58;;;;;;;10.88;100.00;100776.69;5351486;27;20463;-81
2023/12/23 09:23:45;;;;;;;6.60;1.50;;;;;;;10.86;100.00;100772.53;5351567;27;20031;-81
2023/12/23 09:26:17;;;;;;;9.80;2.55;;;;;;;10.92;100.00;100792.97;5348613;27;20022;-81
2023/12/23 09:28:49;;;;;;;8.85;1.58;;;;;;;10.86;100.00;100778.59;5350584;27;20023;-81
2023/12/23 09:31:21;;;;;;;8.68;2.33;;;;;;;10.88;100.00;100766.19;5349637;27;20344;-82
2023/12/23 09:33:52;;;;;;;6.40;1.63;;;;;;;10.82;100.00;100771.97;5350406;27;20023;-82
2023/12/23 09:36:24;;;;;;;10.85;2.20;;;;;;;10.82;100.00;100761.47;5350332;27;20034;-82
2023/12/23 09:38:56;;;;;;;6.32;1.70;;;;;;;10.89;100.00;100759.16;5353131;27;20023;-82
2023/12/23 09:41:28;;;;;;;7.93;1.63;;;;;;;10.88;100.00;100766.19;5350743;27;20114;-82
2023/12/23 09:44:00;;;;;;;7.28;2.03;;;;;;;10.89;100.00;100761.78;5348489;27;20039;-81
2023/12/23 09:46:32;;;;;;;10.32;1.98;;;;;;;10.99;100.00;100782.78;5333731;27;20031;-81
2023/12/23 09:49:04;;;;;;;6.85;1.83;;;;;;;11.03;100.00;100779.75;5350003;27;20430;-81
2023/12/23 09:51:36;;;;;;;5.78;1.83;;;;;;;11.05;100.00;100772.56;5352415;27;20043;-81
2023/12/23 09:54:13;;;;;;;8.02;1.85;;;;;;;11.22;100.00;100788.63;5350072;27;20413;-81
2023/12/23 09:56:48;;;;;;;6.35;1.63;;;;;;;11.16;100.00;100771.63;5349570;27;20031;-82
2023/12/23 09:59:20;;;;;;;11.13;2.45;;;;;;;11.15;100.00;100767.34;5348938;27;20693;-81
2023/12/23 10:01:54;;;;;;;7.53;2.38;;;;;;;11.18;100.00;100780.19;5346603;27;20042;-81
2023/12/23 10:04:28;;;;;;;10.52;2.33;;;;;;;11.29;100.00;100798.44;5351167;27;20150;-81
2023/12/23 10:07:00;;;;;;;9.13;1.85;;;;;;;11.26;100.00;100788.22;5348501;27;20396;-81
2023/12/23 10:09:33;;;;;;;8.73;2.63;;;;;;;11.26;100.00;100801.31;5348280;27;20031;-81
2023/12/23 10:12:05;;;;;;;7.60;1.90;;;;;;;11.29;100.00;100801.06;5347329;27;20031;-81
2023/12/23 10:14:41;;;;;;;6.22;1.90;;;;;;;11.31;100.00;100806.16;5350630;27;20035;-81
2023/12/23 10:17:13;;;;;;;9.30;2.60;;;;;;;11.30;100.00;100802.72;5347184;27;20383;-81
2023/12/23 10:19:48;;;;;;;10.32;2.28;;;;;;;11.38;100.00;100805.47;5349986;27;20026;-81
2023/12/23 10:22:20;;;;;;;6.95;2.05;;;;;;;11.31;100.00;100795.66;5352460;27;20476;-81
2023/12/23 10:24:52;;;;;;;8.18;2.10;;;;;;;11.34;100.00;100777.88;5349252;27;20041;-81
2023/12/23 10:27:26;;;;;;;5.43;1.67;;;;;;;11.42;100.00;100788.50;5332990;27;20038;-81
2023/12/23 10:29:59;;;;;;;6.40;2.03;;;;;;;11.45;100.00;100796.09;5346945;27;20580;-81
2023/12/23 10:32:35;;;;;;;8.45;1.60;;;;;;;11.50;100.00;100773.88;5345733;27;20039;-81
2023/12/23 10:35:10;;;;;;;11.00;2.22;;;;;;;11.48;100.00;100799.41;5348271;27;20488;-81
2023/12/23 10:37:42;;;;;;;7.43;1.85;;;;;;;11.50;100.00;100789.63;5350073;27;20685;-81
2023/12/23 10:40:19;;;;;;;8.07;1.87;;;;;;;11.58;100.00;100785.31;5351974;27;20324;-81
2023/12/23 10:42:53;;;;;;;7.63;1.95;;;;;;;11.64;100.00;100810.22;5350651;27;20037;-81
2023/12/23 10:45:25;;;;;;;7.13;1.90;;;;;;;11.66;100.00;100798.59;5356805;27;20023;-81
2023/12/23 10:48:00;;;;;;;6.03;1.90;;;;;;;11.64;100.00;100789.22;5356324;27;20030;-81
2023/12/23 10:50:33;;;;;;;6.38;1.50;;;;;;;11.67;100.00;100789.75;5353687;27;20557;-81
2023/12/23 10:53:07;;;;;;;11.98;2.53;;;;;;;11.71;100.00;100785.06;5354184;27;20030;-81
2023/12/23 10:55:39;;;;;;;5.80;1.50;;;;;;;11.76;100.00;100787.28;5360395;27;20038;-81
2023/12/23 10:58:12;;;;;;;9.93;1.63;;;;;;;11.74;100.00;100776.91;5355163;27;20035;-81
2023/12/23 11:00:46;;;;;;;;;;;;;;;12.17;100.00;100767.75;5357540;27;20264;-81
2023/12/23 11:03:19;;;;;;;6.13;1.88;;;;;;;11.80;100.00;100792.09;5358216;27;19919;-81
2023/12/23 11:05:53;;;;;;;11.80;2.72;;;;;;;11.76;100.00;100782.84;5359081;27;20496;-81
2023/12/23 11:08:26;;;;;;;9.52;2.28;;;;;;;11.81;100.00;100775.38;5355355;27;20030;-81
2023/12/23 11:10:58;;;;;;;;;;;;;;;12.26;100.00;100776.56;5360487;27;20023;-81
2023/12/23 11:13:31;;;;;;;6.90;2.13;;;;;;;11.81;100.00;100774.53;5353062;27;19919;-81
2023/12/23 11:16:03;;;;;;;8.20;1.98;;;;;;;11.87;100.00;100779.28;5356450;27;20038;-81
2023/12/23 11:18:37;;;;;;;6.72;2.00;;;;;;;11.80;100.00;100768.47;5350058;27;20046;-81
2023/12/23 11:21:18;;;;;;;4.97;1.45;;;;;;;12.02;100.00;100790.19;5357745;27;20030;-81
2023/12/23 11:23:51;;;;;;;5.78;1.70;;;;;;;11.98;100.00;100799.31;5349116;27;20035;-81
2023/12/23 11:26:40;;;;;;;;;;;;;;;12.46;100.00;100787.84;5357818;27;20027;-81
2023/12/23 11:29:18;;;;;;;4.05;1.40;;;;;;;11.95;100.00;100763.66;5353806;27;20398;-84
2023/12/23 11:31:50;;;;;;;5.72;1.65;;;;;;;11.96;100.00;100777.59;5354669;27;20031;-84
2023/12/23 11:34:23;;;;;;;4.70;1.52;;;;;;;12.01;100.00;100789.34;5353154;27;20394;-81
2023/12/23 11:36:56;;;;;;;8.95;2.03;;;;;;;12.07;100.00;100780.06;5356298;27;20030;-81
2023/12/23 11:39:30;;;;;;;;;;;;;;;12.50;100.00;100771.66;5354956;27;20464;-81